sensor_id;sensor_type;location;lat;lon;timestamp;pressure;altitude;pressure_sealevel;temperature;humidity
41945;BME280;63122;52.424;13.458;2023-01-13T00:00:43;99805.38;;;8.41;100.00
41945;BME280;63122;52.424;13.458;2023-01-13T00:03:24;99795.84;;;8.40;100.00
41945;BME280;63122;52.424;13.458;2023-01-13T00:05:57;99809.16;;;8.38;100.00
41945;BME280;63122;52.424;13.458;2023-01-13T00:08:28;99802.75;;;8.41;100.00
41945;BME280;63122;52.424;13.458;2023-01-13T00:10:58;99810.63;;;8.41;100.00
41945;BME280;63122;52.424;13.458;2023-01-13T00:13:28;99801.94;;;8.40;100.00
41945;BME280;63122;52.424;13.458;2023-01-13T00:16:03;99812.44;;;8.40;100.00
41945;BME280;63122;52.424;13.458;2023-01-13T00:18:36;99805.22;;;8.42;100.00
41945;BME280;63122;52.424;13.458;2023-01-13T00:21:10;99804.25;;;8.43;100.00
41945;BME280;63122;52.424;13.458;2023-01-13T00:23:41;99791.09;;;8.43;100.00
41945;BME280;63122;52.424;13.458;2023-01-13T00:26:13;99836.59;;;8.44;100.00
41945;BME280;63122;52.424;13.458;2023-01-13T00:28:44;99802.94;;;8.47;100.00
41945;BME280;63122;52.424;13.458;2023-01-13T00:31:16;99812.94;;;8.44;100.00
41945;BME280;63122;52.424;13.458;2023-01-13T00:33:50;99801.97;;;8.48;100.00
41945;BME280;63122;52.424;13.458;2023-01-13T00:36:20;99801.66;;;8.52;100.00
41945;BME280;63122;52.424;13.458;2023-01-13T00:38:50;99792.94;;;8.51;100.00
41945;BME280;63122;52.424;13.458;2023-01-13T00:41:23;99790.31;;;8.51;100.00
41945;BME280;63122;52.424;13.458;2023-01-13T00:43:55;99787.53;;;8.53;100.00
41945;BME280;63122;52.424;13.458;2023-01-13T00:46:24;99784.25;;;8.50;100.00
41945;BME280;63122;52.424;13.458;2023-01-13T00:48:56;99808.03;;;8.49;100.00
41945;BME280;63122;52.424;13.458;2023-01-13T00:51:27;99792.81;;;8.53;100.00
41945;BME280;63122;52.424;13.458;2023-01-13T00:53:57;99772.09;;;8.49;100.00
41945;BME280;63122;52.424;13.458;2023-01-13T00:56:27;99778.16;;;8.50;100.00
41945;BME280;63122;52.424;13.458;2023-01-13T00:59:09;99786.56;;;8.54;100.00
41945;BME280;63122;52.424;13.458;2023-01-13T01:01:41;99788.53;;;8.52;100.00
41945;BME280;63122;52.424;13.458;2023-01-13T01:04:15;99796.41;;;8.52;100.00
41945;BME280;63122;52.424;13.458;2023-01-13T01:06:46;99799.88;;;8.52;100.00
41945;BME280;63122;52.424;13.458;2023-01-13T01:09:17;99788.72;;;8.58;100.00
41945;BME280;63122;52.424;13.458;2023-01-13T01:11:47;99794.97;;;8.57;100.00
41945;BME280;63122;52.424;13.458;2023-01-13T01:14:17;99782.16;;;8.62;100.00
41945;BME280;63122;52.424;13.458;2023-01-13T01:16:48;99786.91;;;8.59;100.00
41945;BME280;63122;52.424;13.458;2023-01-13T01:19:20;99785.09;;;8.59;100.00
41945;BME280;63122;52.424;13.458;2023-01-13T01:21:51;99803.34;;;8.61;100.00
41945;BME280;63122;52.424;13.458;2023-01-13T01:24:22;99806.28;;;8.58;100.00
41945;BME280;63122;52.424;13.458;2023-01-13T01:27:09;99800.69;;;8.61;100.00
41945;BME280;63122;52.424;13.458;2023-01-13T01:29:39;99790.69;;;8.64;100.00
41945;BME280;63122;52.424;13.458;2023-01-13T01:32:12;99801.38;;;8.63;100.00
41945;BME280;63122;52.424;13.458;2023-01-13T01:34:45;99787.22;;;8.64;100.00
41945;BME280;63122;52.424;13.458;2023-01-13T01:37:16;99794.50;;;8.70;100.00
41945;BME280;63122;52.424;13.458;2023-01-13T01:39:46;99777.22;;;8.68;100.00
41945;BME280;63122;52.424;13.458;2023-01-13T01:42:17;99785.44;;;8.64;100.00
41945;BME280;63122;52.424;13.458;2023-01-13T01:45:02;99780.69;;;8.68;100.00
41945;BME280;63122;52.424;13.458;2023-01-13T01:47:40;99776.41;;;8.67;100.00
41945;BME280;63122;52.424;13.458;2023-01-13T01:50:14;99761.63;;;8.66;100.00
41945;BME280;63122;52.424;13.458;2023-01-13T01:52:52;99780.19;;;8.73;100.00
41945;BME280;63122;52.424;13.458;2023-01-13T01:55:29;99773.16;;;8.73;100.00
41945;BME280;63122;52.424;13.458;2023-01-13T01:58:05;99755.53;;;8.74;100.00
41945;BME280;63122;52.424;13.458;2023-01-13T02:00:37;99749.94;;;8.77;100.00
41945;BME280;63122;52.424;13.458;2023-01-13T02:03:08;99758.22;;;8.82;100.00
41945;BME280;63122;52.424;13.458;2023-01-13T02:05:43;99755.25;;;8.85;100.00
41945;BME280;63122;52.424;13.458;2023-01-13T02:08:14;99742.44;;;8.82;100.00
41945;BME280;63122;52.424;13.458;2023-01-13T02:10:47;99759.00;;;8.83;100.00
41945;BME280;63122;52.424;13.458;2023-01-13T02:13:20;99744.41;;;8.88;100.00
41945;BME280;63122;52.424;13.458;2023-01-13T02:15:56;99752.44;;;8.87;100.00
41945;BME280;63122;52.424;13.458;2023-01-13T02:18:48;99747.19;;;8.87;100.00
41945;BME280;63122;52.424;13.458;2023-01-13T02:25:04;99736.50;;;8.88;100.00
41945;BME280;63122;52.424;13.458;2023-01-13T02:27:51;99726.66;;;8.90;100.00
41945;BME280;63122;52.424;13.458;2023-01-13T02:30:34;99729.59;;;8.87;100.00
41945;BME280;63122;52.424;13.458;2023-01-13T02:33:38;99727.44;;;8.83;100.00
41945;BME280;63122;52.424;13.458;2023-01-13T02:36:17;99730.41;;;8.79;100.00
41945;BME280;63122;52.424;13.458;2023-01-13T02:38:53;99733.88;;;8.80;100.00
41945;BME280;63122;52.424;13.458;2023-01-13T02:41:28;99759.00;;;8.74;100.00
41945;BME280;63122;52.424;13.458;2023-01-13T02:44:15;99729.56;;;8.79;100.00
41945;BME280;63122;52.424;13.458;2023-01-13T02:46:54;99741.25;;;8.76;100.00
41945;BME280;63122;52.424;13.458;2023-01-13T02:49:32;99731.72;;;8.75;100.00
41945;BME280;63122;52.424;13.458;2023-01-13T02:52:07;99721.03;;;8.77;100.00
41945;BME280;63122;52.424;13.458;2023-01-13T02:54:41;99729.44;;;8.72;100.00
41945;BME280;63122;52.424;13.458;2023-01-13T02:57:15;99743.06;;;8.76;100.00
41945;BME280;63122;52.424;13.458;2023-01-13T02:59:46;99737.66;;;8.77;100.00
41945;BME280;63122;52.424;13.458;2023-01-13T03:02:21;99726.28;;;8.77;100.00
41945;BME280;63122;52.424;13.458;2023-01-13T03:04:54;99731.06;;;8.73;100.00
41945;BME280;63122;52.424;13.458;2023-01-13T03:08:04;99740.09;;;8.71;100.00
41945;BME280;63122;52.424;13.458;2023-01-13T03:10:47;99727.78;;;8.71;100.00
41945;BME280;63122;52.424;13.458;2023-01-13T03:13:44;99731.06;;;8.73;100.00
41945;BME280;63122;52.424;13.458;2023-01-13T03:16:22;99719.56;;;8.74;100.00
41945;BME280;63122;52.424;13.458;2023-01-13T03:19:15;99714.47;;;8.73;100.00
41945;BME280;63122;52.424;13.458;2023-01-13T03:21:53;99731.22;;;8.72;100.00
41945;BME280;63122;52.424;13.458;2023-01-13T03:24:28;99702.81;;;8.75;100.00
41945;BME280;63122;52.424;13.458;2023-01-13T03:27:03;99705.75;;;8.72;100.00
41945;BME280;63122;52.424;13.458;2023-01-13T03:29:37;99711.03;;;8.72;100.00
41945;BME280;63122;52.424;13.458;2023-01-13T03:32:16;99715.94;;;8.75;100.00
41945;BME280;63122;52.424;13.458;2023-01-13T03:34:58;99711.50;;;8.76;100.00
41945;BME280;63122;52.424;13.458;2023-01-13T03:37:42;99714.63;;;8.79;100.00
41945;BME280;63122;52.424;13.458;2023-01-13T03:41:14;99714.13;;;8.76;100.00
41945;BME280;63122;52.424;13.458;2023-01-13T03:44:21;99732.72;;;8.74;100.00
41945;BME280;63122;52.424;13.458;2023-01-13T03:47:51;99722.66;;;8.70;100.00
41945;BME280;63122;52.424;13.458;2023-01-13T03:51:10;99707.22;;;8.75;100.00
41945;BME280;63122;52.424;13.458;2023-01-13T03:53:57;99710.03;;;8.73;100.00
41945;BME280;63122;52.424;13.458;2023-01-13T03:56:32;99712.34;;;8.76;100.00
41945;BME280;63122;52.424;13.458;2023-01-13T03:59:04;99721.34;;;8.74;100.00
41945;BME280;63122;52.424;13.458;2023-01-13T04:01:43;99713.47;;;8.74;100.00
41945;BME280;63122;52.424;13.458;2023-01-13T04:04:18;99715.28;;;8.73;100.00
41945;BME280;63122;52.424;13.458;2023-01-13T04:06:55;99718.91;;;8.72;100.00
41945;BME280;63122;52.424;13.458;2023-01-13T04:09:30;99710.69;;;8.67;100.00
41945;BME280;63122;52.424;13.458;2023-01-13T04:12:07;99697.88;;;8.72;100.00
41945;BME280;63122;52.424;13.458;2023-01-13T04:14:39;99705.09;;;8.70;100.00
41945;BME280;63122;52.424;13.458;2023-01-13T04:17:11;99697.69;;;8.74;100.00
41945;BME280;63122;52.424;13.458;2023-01-13T04:19:43;99711.16;;;8.71;100.00
41945;BME280;63122;52.424;13.458;2023-01-13T04:22:17;99702.28;;;8.72;100.00
41945;BME280;63122;52.424;13.458;2023-01-13T04:24:47;99720.69;;;8.72;100.00
41945;BME280;63122;52.424;13.458;2023-01-13T04:27:17;99698.03;;;8.71;100.00
41945;BME280;63122;52.424;13.458;2023-01-13T04:29:48;99707.72;;;8.70;100.00
41945;BME280;63122;52.424;13.458;2023-01-13T04:32:18;99700.16;;;8.67;100.00
41945;BME280;63122;52.424;13.458;2023-01-13T04:34:49;99698.03;;;8.62;100.00
41945;BME280;63122;52.424;13.458;2023-01-13T04:37:22;99717.22;;;8.63;100.00
41945;BME280;63122;52.424;13.458;2023-01-13T04:39:52;99715.44;;;8.63;100.00
41945;BME280;63122;52.424;13.458;2023-01-13T04:42:23;99705.72;;;8.64;100.00
41945;BME280;63122;52.424;13.458;2023-01-13T04:44:53;99724.97;;;8.64;100.00
41945;BME280;63122;52.424;13.458;2023-01-13T04:47:24;99728.06;;;8.60;100.00
41945;BME280;63122;52.424;13.458;2023-01-13T04:49:54;99712.34;;;8.68;100.00
41945;BME280;63122;52.424;13.458;2023-01-13T04:52:27;99721.88;;;8.69;100.00
41945;BME280;63122;52.424;13.458;2023-01-13T04:54:57;99715.25;;;8.65;100.00
41945;BME280;63122;52.424;13.458;2023-01-13T04:57:28;99714.44;;;8.64;100.00
41945;BME280;63122;52.424;13.458;2023-01-13T04:59:59;99718.06;;;8.72;100.00
41945;BME280;63122;52.424;13.458;2023-01-13T05:02:30;99733.66;;;8.65;100.00
41945;BME280;63122;52.424;13.458;2023-01-13T05:05:00;99728.78;;;8.70;100.00
41945;BME280;63122;52.424;13.458;2023-01-13T05:07:33;99727.59;;;8.64;100.00
41945;BME280;63122;52.424;13.458;2023-01-13T05:10:04;99728.91;;;8.69;100.00
41945;BME280;63122;52.424;13.458;2023-01-13T05:12:35;99733.50;;;8.67;100.00
41945;BME280;63122;52.424;13.458;2023-01-13T05:15:18;99730.22;;;8.73;100.00
41945;BME280;63122;52.424;13.458;2023-01-13T05:18:01;99730.09;;;8.74;100.00
41945;BME280;63122;52.424;13.458;2023-01-13T05:20:31;99726.63;;;8.74;100.00
41945;BME280;63122;52.424;13.458;2023-01-13T05:23:05;99722.00;;;8.68;100.00
41945;BME280;63122;52.424;13.458;2023-01-13T05:25:48;99722.00;;;8.68;100.00
41945;BME280;63122;52.424;13.458;2023-01-13T05:28:19;99722.84;;;8.68;100.00
41945;BME280;63122;52.424;13.458;2023-01-13T05:30:49;99724.66;;;8.68;100.00
41945;BME280;63122;52.424;13.458;2023-01-13T05:33:19;99720.03;;;8.70;100.00
41945;BME280;63122;52.424;13.458;2023-01-13T05:35:49;99716.09;;;8.66;100.00
41945;BME280;63122;52.424;13.458;2023-01-13T05:38:22;99717.59;;;8.68;100.00
41945;BME280;63122;52.424;13.458;2023-01-13T05:40:52;99722.34;;;8.73;100.00
41945;BME280;63122;52.424;13.458;2023-01-13T05:43:35;99725.47;;;8.68;100.00
41945;BME280;63122;52.424;13.458;2023-01-13T05:46:07;99727.94;;;8.70;100.00
41945;BME280;63122;52.424;13.458;2023-01-13T05:48:40;99716.28;;;8.72;100.00
41945;BME280;63122;52.424;13.458;2023-01-13T05:51:11;99725.97;;;8.72;100.00
41945;BME280;63122;52.424;13.458;2023-01-13T05:53:44;99724.66;;;8.68;100.00
41945;BME280;63122;52.424;13.458;2023-01-13T05:56:14;99744.22;;;8.73;100.00
41945;BME280;63122;52.424;13.458;2023-01-13T05:58:45;99736.00;;;8.76;100.00
41945;BME280;63122;52.424;13.458;2023-01-13T06:01:18;99746.84;;;8.82;100.00
41945;BME280;63122;52.424;13.458;2023-01-13T06:03:52;99734.69;;;8.89;100.00
41945;BME280;63122;52.424;13.458;2023-01-13T06:06:23;99739.47;;;8.93;100.00
41945;BME280;63122;52.424;13.458;2023-01-13T06:08:59;99738.00;;;8.99;100.00
41945;BME280;63122;52.424;13.458;2023-01-13T06:11:28;99739.97;;;9.05;100.00
41945;BME280;63122;52.424;13.458;2023-01-13T06:13:59;99729.75;;;9.11;100.00
41945;BME280;63122;52.424;13.458;2023-01-13T06:16:29;99728.31;;;9.08;100.00
41945;BME280;63122;52.424;13.458;2023-01-13T06:18:59;99731.22;;;9.05;100.00
41945;BME280;63122;52.424;13.458;2023-01-13T06:21:29;99732.41;;;9.11;100.00
41945;BME280;63122;52.424;13.458;2023-01-13T06:24:03;99733.88;;;9.05;100.00
41945;BME280;63122;52.424;13.458;2023-01-13T06:26:36;99736.34;;;9.15;100.00
41945;BME280;63122;52.424;13.458;2023-01-13T06:29:07;99759.03;;;9.07;100.00
41945;BME280;63122;52.424;13.458;2023-01-13T06:31:40;99753.63;;;9.09;100.00
41945;BME280;63122;52.424;13.458;2023-01-13T06:34:12;99764.81;;;9.11;100.00
41945;BME280;63122;52.424;13.458;2023-01-13T06:36:45;99756.41;;;9.16;100.00
41945;BME280;63122;52.424;13.458;2023-01-13T06:39:24;99764.47;;;9.14;100.00
41945;BME280;63122;52.424;13.458;2023-01-13T06:41:57;99749.50;;;9.15;100.00
41945;BME280;63122;52.424;13.458;2023-01-13T06:44:41;99751.97;;;9.16;100.00
41945;BME280;63122;52.424;13.458;2023-01-13T06:47:11;99758.88;;;9.09;100.00
41945;BME280;63122;52.424;13.458;2023-01-13T06:49:41;99758.38;;;9.05;100.00
41945;BME280;63122;52.424;13.458;2023-01-13T06:52:11;99724.00;;;9.07;100.00
41945;BME280;63122;52.424;13.458;2023-01-13T06:54:44;99722.34;;;9.06;100.00
41945;BME280;63122;52.424;13.458;2023-01-13T06:57:14;99744.25;;;8.98;100.00
41945;BME280;63122;52.424;13.458;2023-01-13T06:59:45;99757.88;;;8.93;100.00
41945;BME280;63122;52.424;13.458;2023-01-13T07:02:16;99745.38;;;8.96;100.00
41945;BME280;63122;52.424;13.458;2023-01-13T07:04:47;99765.44;;;8.97;100.00
41945;BME280;63122;52.424;13.458;2023-01-13T07:07:17;99757.53;;;9.05;100.00
41945;BME280;63122;52.424;13.458;2023-01-13T07:09:50;99743.72;;;9.03;100.00
41945;BME280;63122;52.424;13.458;2023-01-13T07:12:20;99733.22;;;9.03;100.00
41945;BME280;63122;52.424;13.458;2023-01-13T07:14:50;99766.59;;;9.02;100.00
41945;BME280;63122;52.424;13.458;2023-01-13T07:17:33;99760.50;;;9.02;100.00
41945;BME280;63122;52.424;13.458;2023-01-13T07:20:04;99743.91;;;9.01;100.00
41945;BME280;63122;52.424;13.458;2023-01-13T07:22:34;99741.59;;;9.06;100.00
41945;BME280;63122;52.424;13.458;2023-01-13T07:25:08;99735.69;;;9.13;100.00
41945;BME280;63122;52.424;13.458;2023-01-13T07:27:39;99746.38;;;9.11;100.00
41945;BME280;63122;52.424;13.458;2023-01-13T07:30:10;99737.34;;;9.05;100.00
41945;BME280;63122;52.424;13.458;2023-01-13T07:32:41;99729.94;;;9.09;100.00
41945;BME280;63122;52.424;13.458;2023-01-13T07:35:11;99721.69;;;9.04;100.00
41945;BME280;63122;52.424;13.458;2023-01-13T07:37:41;99711.03;;;9.05;100.00
41945;BME280;63122;52.424;13.458;2023-01-13T07:40:14;99728.28;;;9.00;100.00
41945;BME280;63122;52.424;13.458;2023-01-13T07:42:44;99739.47;;;9.02;100.00
41945;BME280;63122;52.424;13.458;2023-01-13T07:45:29;99749.31;;;9.00;100.00
41945;BME280;63122;52.424;13.458;2023-01-13T07:48:02;99746.69;;;8.91;100.00
41945;BME280;63122;52.424;13.458;2023-01-13T07:50:33;99747.50;;;8.92;100.00
41945;BME280;63122;52.424;13.458;2023-01-13T07:53:03;99769.84;;;8.79;100.00
41945;BME280;63122;52.424;13.458;2023-01-13T07:55:40;99753.25;;;8.79;100.00
41945;BME280;63122;52.424;13.458;2023-01-13T07:58:10;99762.78;;;8.72;100.00
41945;BME280;63122;52.424;13.458;2023-01-13T08:00:40;99752.25;;;8.72;100.00
41945;BME280;63122;52.424;13.458;2023-01-13T08:03:10;99758.50;;;8.71;100.00
41945;BME280;63122;52.424;13.458;2023-01-13T08:05:41;99770.19;;;8.68;100.00
41945;BME280;63122;52.424;13.458;2023-01-13T08:08:11;99788.25;;;8.71;100.00
41945;BME280;63122;52.424;13.458;2023-01-13T08:10:44;99806.94;;;8.60;100.00
41945;BME280;63122;52.424;13.458;2023-01-13T08:13:16;99815.03;;;8.67;100.00
41945;BME280;63122;52.424;13.458;2023-01-13T08:15:49;99808.09;;;8.57;100.00
41945;BME280;63122;52.424;13.458;2023-01-13T08:18:20;99809.25;;;8.63;100.00
41945;BME280;63122;52.424;13.458;2023-01-13T08:20:51;99799.91;;;8.60;100.00
41945;BME280;63122;52.424;13.458;2023-01-13T08:23:22;99808.75;;;8.59;100.00
41945;BME280;63122;52.424;13.458;2023-01-13T08:25:58;99812.69;;;8.55;100.00
41945;BME280;63122;52.424;13.458;2023-01-13T08:28:29;99829.56;;;8.44;100.00
41945;BME280;63122;52.424;13.458;2023-01-13T08:31:01;99836.94;;;8.49;100.00
41945;BME280;63122;52.424;13.458;2023-01-13T08:33:32;99838.75;;;8.48;100.00
41945;BME280;63122;52.424;13.458;2023-01-13T08:36:03;99819.75;;;8.55;100.00
41945;BME280;63122;52.424;13.458;2023-01-13T08:38:34;99807.22;;;8.48;100.00
41945;BME280;63122;52.424;13.458;2023-01-13T08:41:13;99800.69;;;8.53;100.00
41945;BME280;63122;52.424;13.458;2023-01-13T08:44:04;99789.53;;;8.59;100.00
41945;BME280;63122;52.424;13.458;2023-01-13T08:46:35;99793.81;;;8.60;100.00
41945;BME280;63122;52.424;13.458;2023-01-13T08:49:05;99804.50;;;8.58;100.00
41945;BME280;63122;52.424;13.458;2023-01-13T08:51:36;99816.34;;;8.62;100.00
41945;BME280;63122;52.424;13.458;2023-01-13T08:54:05;99820.72;;;8.54;100.00
41945;BME280;63122;52.424;13.458;2023-01-13T08:56:39;99835.53;;;8.55;100.00
41945;BME280;63122;52.424;13.458;2023-01-13T08:59:11;99840.63;;;8.56;100.00
41945;BME280;63122;52.424;13.458;2023-01-13T09:01:42;99837.16;;;8.56;100.00
41945;BME280;63122;52.424;13.458;2023-01-13T09:04:15;99845.22;;;8.54;100.00
41945;BME280;63122;52.424;13.458;2023-01-13T09:06:47;99853.94;;;8.55;100.00
41945;BME280;63122;52.424;13.458;2023-01-13T09:09:18;99845.22;;;8.54;100.00
41945;BME280;63122;52.424;13.458;2023-01-13T09:11:51;99808.59;;;8.61;100.00
41945;BME280;63122;52.424;13.458;2023-01-13T09:14:36;99734.97;;;8.61;100.00
41945;BME280;63122;52.424;13.458;2023-01-13T09:17:07;99709.84;;;8.58;100.00
41945;BME280;63122;52.424;13.458;2023-01-13T09:19:37;99749.94;;;8.52;100.00
41945;BME280;63122;52.424;13.458;2023-01-13T09:22:09;99738.22;;;8.46;100.00
41945;BME280;63122;52.424;13.458;2023-01-13T09:24:43;99767.44;;;8.43;100.00
41945;BME280;63122;52.424;13.458;2023-01-13T09:27:16;99797.03;;;8.45;100.00
41945;BME280;63122;52.424;13.458;2023-01-13T09:29:48;99818.19;;;8.44;100.00
41945;BME280;63122;52.424;13.458;2023-01-13T09:32:18;99805.13;;;8.52;100.00
41945;BME280;63122;52.424;13.458;2023-01-13T09:34:49;99802.28;;;8.45;100.00
41945;BME280;63122;52.424;13.458;2023-01-13T09:37:31;99816.56;;;8.43;100.00
41945;BME280;63122;52.424;13.458;2023-01-13T09:40:05;99812.75;;;8.37;100.00
41945;BME280;63122;52.424;13.458;2023-01-13T09:42:44;99796.69;;;8.40;100.00
41945;BME280;63122;52.424;13.458;2023-01-13T09:45:31;99786.75;;;8.52;100.00
41945;BME280;63122;52.424;13.458;2023-01-13T09:48:10;99781.25;;;8.45;100.00
41945;BME280;63122;52.424;13.458;2023-01-13T09:50:52;99797.66;;;8.39;100.00
41945;BME280;63122;52.424;13.458;2023-01-13T09:53:28;99828.66;;;8.27;100.00
41945;BME280;63122;52.424;13.458;2023-01-13T09:55:59;99811.59;;;8.31;100.00
41945;BME280;63122;52.424;13.458;2023-01-13T09:58:33;99807.47;;;8.29;100.00
41945;BME280;63122;52.424;13.458;2023-01-13T10:01:11;99808.91;;;8.23;100.00
41945;BME280;63122;52.424;13.458;2023-01-13T10:03:44;99835.50;;;8.20;100.00
41945;BME280;63122;52.424;13.458;2023-01-13T10:06:18;99838.13;;;8.20;100.00
41945;BME280;63122;52.424;13.458;2023-01-13T10:08:50;99833.03;;;8.18;100.00
41945;BME280;63122;52.424;13.458;2023-01-13T10:11:23;99832.94;;;8.28;100.00
41945;BME280;63122;52.424;13.458;2023-01-13T10:14:16;99832.38;;;8.16;100.00
41945;BME280;63122;52.424;13.458;2023-01-13T10:16:50;99828.75;;;8.17;100.00
41945;BME280;63122;52.424;13.458;2023-01-13T10:19:25;99838.75;;;8.14;100.00
41945;BME280;63122;52.424;13.458;2023-01-13T10:22:18;99837.41;;;8.10;100.00
41945;BME280;63122;52.424;13.458;2023-01-13T10:25:04;99827.13;;;8.16;100.00
41945;BME280;63122;52.424;13.458;2023-01-13T10:27:37;99825.97;;;8.19;100.00
41945;BME280;63122;52.424;13.458;2023-01-13T10:30:21;99833.66;;;8.12;100.00
41945;BME280;63122;52.424;13.458;2023-01-13T10:32:55;99825.97;;;8.19;100.00
41945;BME280;63122;52.424;13.458;2023-01-13T10:35:54;99824.31;;;8.18;100.00
41945;BME280;63122;52.424;13.458;2023-01-13T10:38:28;99829.44;;;8.19;100.00
41945;BME280;63122;52.424;13.458;2023-01-13T10:41:00;99830.56;;;8.17;100.00
41945;BME280;63122;52.424;13.458;2023-01-13T10:43:31;99820.41;;;8.22;100.00
41945;BME280;63122;52.424;13.458;2023-01-13T10:46:09;99812.84;;;8.19;100.00
41945;BME280;63122;52.424;13.458;2023-01-13T10:48:41;99831.59;;;8.24;100.00
41945;BME280;63122;52.424;13.458;2023-01-13T10:51:21;99816.31;;;8.28;100.00
41945;BME280;63122;52.424;13.458;2023-01-13T10:53:56;99817.28;;;8.18;100.00
41945;BME280;63122;52.424;13.458;2023-01-13T10:56:30;99810.59;;;8.24;100.00
41945;BME280;63122;52.424;13.458;2023-01-13T10:59:16;99828.28;;;8.22;100.00
41945;BME280;63122;52.424;13.458;2023-01-13T11:02:08;99813.34;;;8.23;100.00
41945;BME280;63122;52.424;13.458;2023-01-13T11:05:01;99810.16;;;8.45;100.00
41945;BME280;63122;52.424;13.458;2023-01-13T11:07:33;99811.72;;;8.64;100.00
41945;BME280;63122;52.424;13.458;2023-01-13T11:10:18;99812.19;;;8.60;100.00
41945;BME280;63122;52.424;13.458;2023-01-13T11:12:57;99812.53;;;8.57;100.00
41945;BME280;63122;52.424;13.458;2023-01-13T11:15:37;99822.91;;;8.58;100.00
41945;BME280;63122;52.424;13.458;2023-01-13T11:18:17;99824.72;;;8.66;100.00
41945;BME280;63122;52.424;13.458;2023-01-13T11:20:50;99824.22;;;8.71;100.00
41945;BME280;63122;52.424;13.458;2023-01-13T11:23:24;99814.56;;;8.79;100.00
41945;BME280;63122;52.424;13.458;2023-01-13T11:26:01;99810.53;;;9.18;100.00
41945;BME280;63122;52.424;13.458;2023-01-13T11:28:38;99826.78;;;9.05;100.00
41945;BME280;63122;52.424;13.458;2023-01-13T11:31:17;99824.84;;;9.24;100.00
41945;BME280;63122;52.424;13.458;2023-01-13T11:33:57;99821.38;;;9.32;100.00
41945;BME280;63122;52.424;13.458;2023-01-13T11:36:36;99818.75;;;9.24;100.00
41945;BME280;63122;52.424;13.458;2023-01-13T11:39:17;99829.25;;;9.32;100.00
41945;BME280;63122;52.424;13.458;2023-01-13T11:41:54;99819.09;;;9.37;100.00
41945;BME280;63122;52.424;13.458;2023-01-13T11:44:42;99815.06;;;9.99;100.00
41945;BME280;63122;52.424;13.458;2023-01-13T11:47:16;99826.81;;;9.80;100.00
41945;BME280;63122;52.424;13.458;2023-01-13T11:49:52;99821.44;;;10.05;100.00
41945;BME280;63122;52.424;13.458;2023-01-13T11:52:28;99830.88;;;9.99;100.00
41945;BME280;63122;52.424;13.458;2023-01-13T11:55:13;99811.72;;;10.22;100.00
41945;BME280;63122;52.424;13.458;2023-01-13T12:01:03;99829.19;;;10.06;100.00
41945;BME280;63122;52.424;13.458;2023-01-13T12:03:39;99841.50;;;10.22;100.00
41945;BME280;63122;52.424;13.458;2023-01-13T12:06:20;99830.56;;;9.77;100.00
41945;BME280;63122;52.424;13.458;2023-01-13T12:09:18;99835.38;;;9.57;100.00
41945;BME280;63122;52.424;13.458;2023-01-13T12:11:58;99842.09;;;9.93;100.00
41945;BME280;63122;52.424;13.458;2023-01-13T12:15:00;99852.63;;;9.93;100.00
41945;BME280;63122;52.424;13.458;2023-01-13T12:17:38;99829.19;;;10.06;100.00
41945;BME280;63122;52.424;13.458;2023-01-13T12:20:29;99823.78;;;10.00;100.00
41945;BME280;63122;52.424;13.458;2023-01-13T12:23:17;99829.78;;;10.33;100.00
41945;BME280;63122;52.424;13.458;2023-01-13T12:25:57;99843.66;;;10.27;100.00
41945;BME280;63122;52.424;13.458;2023-01-13T12:28:45;99845.84;;;10.07;100.00
41945;BME280;63122;52.424;13.458;2023-01-13T12:31:20;99853.88;;;10.14;100.00
41945;BME280;63122;52.424;13.458;2023-01-13T12:34:17;99830.50;;;10.59;100.00
41945;BME280;63122;52.424;13.458;2023-01-13T12:36:58;99840.81;;;10.37;100.00
41945;BME280;63122;52.424;13.458;2023-01-13T12:39:41;99833.25;;;10.42;100.00
41945;BME280;63122;52.424;13.458;2023-01-13T12:42:17;99830.28;;;10.77;100.00
41945;BME280;63122;52.424;13.458;2023-01-13T12:45:21;99854.34;;;10.34;100.00
41945;BME280;63122;52.424;13.458;2023-01-13T12:47:53;99857.78;;;10.43;100.00
41945;BME280;63122;52.424;13.458;2023-01-13T12:50:42;99821.22;;;10.31;100.00
41945;BME280;63122;52.424;13.458;2023-01-13T12:53:54;99852.66;;;10.33;100.00
41945;BME280;63122;52.424;13.458;2023-01-13T12:56:37;99861.31;;;10.02;100.00
41945;BME280;63122;52.424;13.458;2023-01-13T13:02:42;99862.09;;;10.27;100.00
41945;BME280;63122;52.424;13.458;2023-01-13T13:05:42;99862.78;;;10.21;100.00
41945;BME280;63122;52.424;13.458;2023-01-13T13:08:19;99839.19;;;10.28;100.00
41945;BME280;63122;52.424;13.458;2023-01-13T13:11:36;99848.53;;;10.47;100.00
41945;BME280;63122;52.424;13.458;2023-01-13T13:17:41;99843.06;;;10.57;100.00
41945;BME280;63122;52.424;13.458;2023-01-13T13:23:37;99846.84;;;10.62;100.00
41945;BME280;63122;52.424;13.458;2023-01-13T13:26:16;99880.06;;;10.23;100.00
41945;BME280;63122;52.424;13.458;2023-01-13T13:28:55;99868.66;;;10.31;100.00
41945;BME280;63122;52.424;13.458;2023-01-13T13:31:39;99850.13;;;10.64;100.00
41945;BME280;63122;52.424;13.458;2023-01-13T13:34:27;99877.09;;;10.18;100.00
41945;BME280;63122;52.424;13.458;2023-01-13T13:37:46;99850.84;;;10.50;100.00
41945;BME280;63122;52.424;13.458;2023-01-13T13:40:38;99865.53;;;10.44;100.00
41945;BME280;63122;52.424;13.458;2023-01-13T13:44:18;99853.44;;;10.58;100.00
41945;BME280;63122;52.424;13.458;2023-01-13T13:50:23;99869.03;;;10.76;100.00
41945;BME280;63122;52.424;13.458;2023-01-13T13:53:04;99866.16;;;10.55;100.00
41945;BME280;63122;52.424;13.458;2023-01-13T13:55:35;99851.06;;;10.72;100.00
41945;BME280;63122;52.424;13.458;2023-01-13T13:58:14;99854.13;;;10.52;100.00